sensor_id;sensor_type;location;lat;lon;timestamp;temperature;humidity
4811;DHT22;2419;51.276;6.472;2022-11-13T00:02:20;8.70;99.90
4811;DHT22;2419;51.276;6.472;2022-11-13T00:05:07;8.70;99.90
4811;DHT22;2419;51.276;6.472;2022-11-13T00:07:55;8.70;99.90
4811;DHT22;2419;51.276;6.472;2022-11-13T00:10:42;8.80;99.90
4811;DHT22;2419;51.276;6.472;2022-11-13T00:13:29;8.90;99.90
4811;DHT22;2419;51.276;6.472;2022-11-13T00:16:18;8.70;99.90
4811;DHT22;2419;51.276;6.472;2022-11-13T00:19:05;8.70;99.90
4811;DHT22;2419;51.276;6.472;2022-11-13T00:21:52;8.70;99.90
4811;DHT22;2419;51.276;6.472;2022-11-13T00:24:42;8.60;99.90
4811;DHT22;2419;51.276;6.472;2022-11-13T00:27:29;8.60;99.90
4811;DHT22;2419;51.276;6.472;2022-11-13T00:30:16;8.50;99.90
4811;DHT22;2419;51.276;6.472;2022-11-13T00:33:04;8.50;99.90
4811;DHT22;2419;51.276;6.472;2022-11-13T00:35:51;8.40;99.90
4811;DHT22;2419;51.276;6.472;2022-11-13T00:38:38;8.30;99.90
4811;DHT22;2419;51.276;6.472;2022-11-13T00:41:26;8.20;99.90
4811;DHT22;2419;51.276;6.472;2022-11-13T00:44:14;8.10;99.90
4811;DHT22;2419;51.276;6.472;2022-11-13T00:47:00;8.10;99.90
4811;DHT22;2419;51.276;6.472;2022-11-13T00:49:47;8.00;99.90
4811;DHT22;2419;51.276;6.472;2022-11-13T00:52:34;8.00;99.90
4811;DHT22;2419;51.276;6.472;2022-11-13T00:55:21;8.00;99.90
4811;DHT22;2419;51.276;6.472;2022-11-13T00:58:10;8.10;99.90
4811;DHT22;2419;51.276;6.472;2022-11-13T01:01:03;8.20;99.90
4811;DHT22;2419;51.276;6.472;2022-11-13T01:03:51;8.30;99.90
4811;DHT22;2419;51.276;6.472;2022-11-13T01:06:38;8.40;99.90
4811;DHT22;2419;51.276;6.472;2022-11-13T01:09:25;8.40;99.90
4811;DHT22;2419;51.276;6.472;2022-11-13T01:12:12;8.60;99.90
4811;DHT22;2419;51.276;6.472;2022-11-13T01:15:00;8.70;99.90
4811;DHT22;2419;51.276;6.472;2022-11-13T01:17:47;8.80;99.90
4811;DHT22;2419;51.276;6.472;2022-11-13T01:20:36;8.90;99.90
4811;DHT22;2419;51.276;6.472;2022-11-13T01:23:23;9.00;99.90
4811;DHT22;2419;51.276;6.472;2022-11-13T01:26:13;9.00;99.90
4811;DHT22;2419;51.276;6.472;2022-11-13T01:29:01;9.00;99.90
4811;DHT22;2419;51.276;6.472;2022-11-13T01:31:49;9.00;99.90
4811;DHT22;2419;51.276;6.472;2022-11-13T01:34:36;9.10;99.90
4811;DHT22;2419;51.276;6.472;2022-11-13T01:37:23;9.10;99.90
4811;DHT22;2419;51.276;6.472;2022-11-13T01:40:12;9.10;99.90
4811;DHT22;2419;51.276;6.472;2022-11-13T01:43:13;9.00;99.90
4811;DHT22;2419;51.276;6.472;2022-11-13T01:46:18;8.90;99.90
4811;DHT22;2419;51.276;6.472;2022-11-13T01:49:21;8.80;99.90
4811;DHT22;2419;51.276;6.472;2022-11-13T01:52:12;8.80;99.90
4811;DHT22;2419;51.276;6.472;2022-11-13T01:55:03;8.90;99.90
4811;DHT22;2419;51.276;6.472;2022-11-13T01:57:50;9.00;99.90
4811;DHT22;2419;51.276;6.472;2022-11-13T02:00:37;9.00;99.90
4811;DHT22;2419;51.276;6.472;2022-11-13T02:03:24;9.10;99.90
4811;DHT22;2419;51.276;6.472;2022-11-13T02:06:12;9.20;99.90
4811;DHT22;2419;51.276;6.472;2022-11-13T02:08:59;9.20;99.90
4811;DHT22;2419;51.276;6.472;2022-11-13T02:11:46;9.20;99.90
4811;DHT22;2419;51.276;6.472;2022-11-13T02:14:35;9.30;99.90
4811;DHT22;2419;51.276;6.472;2022-11-13T02:17:29;9.20;99.90
4811;DHT22;2419;51.276;6.472;2022-11-13T02:20:19;9.10;99.90
4811;DHT22;2419;51.276;6.472;2022-11-13T02:23:13;9.20;99.90
4811;DHT22;2419;51.276;6.472;2022-11-13T02:26:05;9.10;99.90
4811;DHT22;2419;51.276;6.472;2022-11-13T02:28:53;9.20;99.90
4811;DHT22;2419;51.276;6.472;2022-11-13T02:31:40;9.10;99.90
4811;DHT22;2419;51.276;6.472;2022-11-13T02:34:27;9.00;99.90
4811;DHT22;2419;51.276;6.472;2022-11-13T02:37:15;8.90;99.90
4811;DHT22;2419;51.276;6.472;2022-11-13T02:40:01;8.80;99.90
4811;DHT22;2419;51.276;6.472;2022-11-13T02:42:50;8.80;99.90
4811;DHT22;2419;51.276;6.472;2022-11-13T02:45:36;8.70;99.90
4811;DHT22;2419;51.276;6.472;2022-11-13T02:48:23;8.80;99.90
4811;DHT22;2419;51.276;6.472;2022-11-13T02:51:11;8.70;99.90
4811;DHT22;2419;51.276;6.472;2022-11-13T02:53:58;8.60;99.90
4811;DHT22;2419;51.276;6.472;2022-11-13T02:56:45;8.50;99.90
4811;DHT22;2419;51.276;6.472;2022-11-13T02:59:33;8.40;99.90
4811;DHT22;2419;51.276;6.472;2022-11-13T03:02:21;8.30;99.90
4811;DHT22;2419;51.276;6.472;2022-11-13T03:05:08;8.20;99.90
4811;DHT22;2419;51.276;6.472;2022-11-13T03:07:58;8.20;99.90
4811;DHT22;2419;51.276;6.472;2022-11-13T03:10:44;8.20;99.90
4811;DHT22;2419;51.276;6.472;2022-11-13T03:13:31;8.30;99.90
4811;DHT22;2419;51.276;6.472;2022-11-13T03:16:20;8.30;99.90
4811;DHT22;2419;51.276;6.472;2022-11-13T03:19:07;8.30;99.90
4811;DHT22;2419;51.276;6.472;2022-11-13T03:21:54;8.30;99.90
4811;DHT22;2419;51.276;6.472;2022-11-13T03:24:40;8.30;99.90
4811;DHT22;2419;51.276;6.472;2022-11-13T03:27:29;8.30;99.90
4811;DHT22;2419;51.276;6.472;2022-11-13T03:30:17;8.30;99.90
4811;DHT22;2419;51.276;6.472;2022-11-13T03:33:05;8.20;99.90
4811;DHT22;2419;51.276;6.472;2022-11-13T03:35:52;8.20;99.90
4811;DHT22;2419;51.276;6.472;2022-11-13T03:38:40;8.20;99.90
4811;DHT22;2419;51.276;6.472;2022-11-13T03:41:27;8.20;99.90
4811;DHT22;2419;51.276;6.472;2022-11-13T03:44:14;8.10;99.90
4811;DHT22;2419;51.276;6.472;2022-11-13T03:47:01;8.10;99.90
4811;DHT22;2419;51.276;6.472;2022-11-13T03:49:49;8.10;99.90
4811;DHT22;2419;51.276;6.472;2022-11-13T03:52:36;8.10;99.90
4811;DHT22;2419;51.276;6.472;2022-11-13T03:55:23;8.10;99.90
4811;DHT22;2419;51.276;6.472;2022-11-13T03:58:10;8.10;99.90
4811;DHT22;2419;51.276;6.472;2022-11-13T04:00:57;8.10;99.90
4811;DHT22;2419;51.276;6.472;2022-11-13T04:03:43;8.10;99.90
4811;DHT22;2419;51.276;6.472;2022-11-13T04:06:32;8.10;99.90
4811;DHT22;2419;51.276;6.472;2022-11-13T04:09:18;8.00;99.90
4811;DHT22;2419;51.276;6.472;2022-11-13T04:12:05;8.00;99.90
4811;DHT22;2419;51.276;6.472;2022-11-13T04:14:52;8.00;99.90
4811;DHT22;2419;51.276;6.472;2022-11-13T04:17:38;8.10;99.90
4811;DHT22;2419;51.276;6.472;2022-11-13T04:20:26;8.10;99.90
4811;DHT22;2419;51.276;6.472;2022-11-13T04:23:14;8.00;99.90
4811;DHT22;2419;51.276;6.472;2022-11-13T04:26:02;8.10;99.90
4811;DHT22;2419;51.276;6.472;2022-11-13T04:28:49;8.00;99.90
4811;DHT22;2419;51.276;6.472;2022-11-13T04:31:36;8.00;99.90
4811;DHT22;2419;51.276;6.472;2022-11-13T04:34:22;7.90;99.90
4811;DHT22;2419;51.276;6.472;2022-11-13T04:37:09;7.90;99.90
4811;DHT22;2419;51.276;6.472;2022-11-13T04:39:57;7.90;99.90
4811;DHT22;2419;51.276;6.472;2022-11-13T04:42:43;7.90;99.90
4811;DHT22;2419;51.276;6.472;2022-11-13T04:45:35;7.80;99.90
4811;DHT22;2419;51.276;6.472;2022-11-13T04:48:22;7.70;99.90
4811;DHT22;2419;51.276;6.472;2022-11-13T04:51:09;7.60;99.90
4811;DHT22;2419;51.276;6.472;2022-11-13T04:53:57;7.50;99.90
4811;DHT22;2419;51.276;6.472;2022-11-13T04:56:45;7.50;99.90
4811;DHT22;2419;51.276;6.472;2022-11-13T04:59:32;7.40;99.90
4811;DHT22;2419;51.276;6.472;2022-11-13T05:02:19;7.40;99.90
4811;DHT22;2419;51.276;6.472;2022-11-13T05:05:06;7.40;99.90
4811;DHT22;2419;51.276;6.472;2022-11-13T05:07:53;7.40;99.90
4811;DHT22;2419;51.276;6.472;2022-11-13T05:10:40;7.30;99.90
4811;DHT22;2419;51.276;6.472;2022-11-13T05:13:31;7.40;99.90
4811;DHT22;2419;51.276;6.472;2022-11-13T05:16:18;7.30;99.90
4811;DHT22;2419;51.276;6.472;2022-11-13T05:19:05;7.30;99.90
4811;DHT22;2419;51.276;6.472;2022-11-13T05:21:52;7.10;99.90
4811;DHT22;2419;51.276;6.472;2022-11-13T05:24:38;7.10;99.90
4811;DHT22;2419;51.276;6.472;2022-11-13T05:27:25;6.90;99.90
4811;DHT22;2419;51.276;6.472;2022-11-13T05:30:14;6.90;99.90
4811;DHT22;2419;51.276;6.472;2022-11-13T05:33:01;6.90;99.90
4811;DHT22;2419;51.276;6.472;2022-11-13T05:35:48;6.90;99.90
4811;DHT22;2419;51.276;6.472;2022-11-13T05:38:35;6.90;99.90
4811;DHT22;2419;51.276;6.472;2022-11-13T05:41:23;6.90;99.90
4811;DHT22;2419;51.276;6.472;2022-11-13T05:44:10;6.80;99.90
4811;DHT22;2419;51.276;6.472;2022-11-13T05:46:58;6.80;99.90
4811;DHT22;2419;51.276;6.472;2022-11-13T05:49:45;6.80;99.90
4811;DHT22;2419;51.276;6.472;2022-11-13T05:52:32;6.80;99.90
4811;DHT22;2419;51.276;6.472;2022-11-13T05:55:19;6.80;99.90
4811;DHT22;2419;51.276;6.472;2022-11-13T05:58:08;6.80;99.90
4811;DHT22;2419;51.276;6.472;2022-11-13T06:01:05;6.90;99.90
4811;DHT22;2419;51.276;6.472;2022-11-13T06:03:54;6.90;99.90
4811;DHT22;2419;51.276;6.472;2022-11-13T06:06:41;6.90;99.90
4811;DHT22;2419;51.276;6.472;2022-11-13T06:09:28;6.90;99.90
4811;DHT22;2419;51.276;6.472;2022-11-13T06:12:15;6.90;99.90
4811;DHT22;2419;51.276;6.472;2022-11-13T06:15:03;6.90;99.90
4811;DHT22;2419;51.276;6.472;2022-11-13T06:17:50;7.00;99.90
4811;DHT22;2419;51.276;6.472;2022-11-13T06:20:39;6.90;99.90
4811;DHT22;2419;51.276;6.472;2022-11-13T06:23:25;6.80;99.90
4811;DHT22;2419;51.276;6.472;2022-11-13T06:26:14;6.80;99.90
4811;DHT22;2419;51.276;6.472;2022-11-13T06:29:03;6.80;99.90
4811;DHT22;2419;51.276;6.472;2022-11-13T06:31:50;6.80;99.90
4811;DHT22;2419;51.276;6.472;2022-11-13T06:34:37;6.80;99.90
4811;DHT22;2419;51.276;6.472;2022-11-13T06:37:26;6.80;99.90
4811;DHT22;2419;51.276;6.472;2022-11-13T06:40:19;6.70;99.90
4811;DHT22;2419;51.276;6.472;2022-11-13T06:43:05;6.60;99.90
4811;DHT22;2419;51.276;6.472;2022-11-13T06:45:52;6.60;99.90
4811;DHT22;2419;51.276;6.472;2022-11-13T06:48:39;6.70;99.90
4811;DHT22;2419;51.276;6.472;2022-11-13T06:51:28;6.60;99.90
4811;DHT22;2419;51.276;6.472;2022-11-13T06:54:17;6.60;99.90
4811;DHT22;2419;51.276;6.472;2022-11-13T06:57:03;6.50;99.90
4811;DHT22;2419;51.276;6.472;2022-11-13T06:59:50;6.50;99.90
4811;DHT22;2419;51.276;6.472;2022-11-13T07:02:37;6.60;99.90
4811;DHT22;2419;51.276;6.472;2022-11-13T07:05:23;7.00;99.90
4811;DHT22;2419;51.276;6.472;2022-11-13T07:08:11;7.20;99.90
4811;DHT22;2419;51.276;6.472;2022-11-13T07:11:00;7.80;92.60
4811;DHT22;2419;51.276;6.472;2022-11-13T07:13:47;8.50;1.00
4811;DHT22;2419;51.276;6.472;2022-11-13T07:16:34;8.80;99.90
4811;DHT22;2419;51.276;6.472;2022-11-13T07:19:41;8.60;99.90
4811;DHT22;2419;51.276;6.472;2022-11-13T07:22:28;8.80;60.70
4811;DHT22;2419;51.276;6.472;2022-11-13T07:25:15;9.70;1.00
4811;DHT22;2419;51.276;6.472;2022-11-13T07:28:04;10.30;95.90
4811;DHT22;2419;51.276;6.472;2022-11-13T07:30:51;11.10;59.70
4811;DHT22;2419;51.276;6.472;2022-11-13T07:33:37;11.60;99.90
4811;DHT22;2419;51.276;6.472;2022-11-13T07:36:24;11.60;99.90
4811;DHT22;2419;51.276;6.472;2022-11-13T07:39:11;11.80;69.20
4811;DHT22;2419;51.276;6.472;2022-11-13T07:41:57;11.40;91.30
4811;DHT22;2419;51.276;6.472;2022-11-13T07:44:45;10.80;99.90
4811;DHT22;2419;51.276;6.472;2022-11-13T07:47:39;10.30;99.90
4811;DHT22;2419;51.276;6.472;2022-11-13T07:50:26;10.20;99.90
4811;DHT22;2419;51.276;6.472;2022-11-13T07:53:13;9.50;73.80
4811;DHT22;2419;51.276;6.472;2022-11-13T07:56:01;9.00;99.90
4811;DHT22;2419;51.276;6.472;2022-11-13T07:58:48;9.10;90.20
4811;DHT22;2419;51.276;6.472;2022-11-13T08:01:37;10.40;99.90
4811;DHT22;2419;51.276;6.472;2022-11-13T08:04:24;11.70;99.90
4811;DHT22;2419;51.276;6.472;2022-11-13T08:07:11;12.70;1.00
4811;DHT22;2419;51.276;6.472;2022-11-13T08:09:58;13.30;99.90
4811;DHT22;2419;51.276;6.472;2022-11-13T08:12:45;12.30;99.90
4811;DHT22;2419;51.276;6.472;2022-11-13T08:15:33;12.50;99.90
4811;DHT22;2419;51.276;6.472;2022-11-13T08:18:22;12.60;99.90
4811;DHT22;2419;51.276;6.472;2022-11-13T08:21:09;13.30;99.90
4811;DHT22;2419;51.276;6.472;2022-11-13T08:23:59;14.70;99.90
4811;DHT22;2419;51.276;6.472;2022-11-13T08:26:46;15.10;99.90
4811;DHT22;2419;51.276;6.472;2022-11-13T08:29:32;13.50;99.90
4811;DHT22;2419;51.276;6.472;2022-11-13T08:32:21;12.60;99.90
4811;DHT22;2419;51.276;6.472;2022-11-13T08:35:10;12.20;99.90
4811;DHT22;2419;51.276;6.472;2022-11-13T08:38:04;11.30;1.00
4811;DHT22;2419;51.276;6.472;2022-11-13T08:40:51;11.00;99.90
4811;DHT22;2419;51.276;6.472;2022-11-13T08:43:38;11.60;11.40
4811;DHT22;2419;51.276;6.472;2022-11-13T08:46:25;12.70;1.00
4811;DHT22;2419;51.276;6.472;2022-11-13T08:49:12;15.50;99.90
4811;DHT22;2419;51.276;6.472;2022-11-13T08:52:00;15.80;99.90
4811;DHT22;2419;51.276;6.472;2022-11-13T08:54:46;16.40;1.00
4811;DHT22;2419;51.276;6.472;2022-11-13T08:57:33;16.90;1.00
4811;DHT22;2419;51.276;6.472;2022-11-13T09:00:21;17.10;99.90
4811;DHT22;2419;51.276;6.472;2022-11-13T09:03:10;17.70;99.90
4811;DHT22;2419;51.276;6.472;2022-11-13T09:05:57;17.90;99.90
4811;DHT22;2419;51.276;6.472;2022-11-13T09:08:45;18.20;23.40
4811;DHT22;2419;51.276;6.472;2022-11-13T09:11:33;18.20;99.90
4811;DHT22;2419;51.276;6.472;2022-11-13T09:14:20;18.60;99.90
4811;DHT22;2419;51.276;6.472;2022-11-13T09:17:06;19.20;36.20
4811;DHT22;2419;51.276;6.472;2022-11-13T09:19:53;19.30;99.90
4811;DHT22;2419;51.276;6.472;2022-11-13T09:22:55;19.40;99.90
4811;DHT22;2419;51.276;6.472;2022-11-13T09:25:43;18.20;99.90
4811;DHT22;2419;51.276;6.472;2022-11-13T09:28:30;18.80;99.90
4811;DHT22;2419;51.276;6.472;2022-11-13T09:31:18;18.30;99.90
4811;DHT22;2419;51.276;6.472;2022-11-13T09:34:04;17.50;93.60
4811;DHT22;2419;51.276;6.472;2022-11-13T09:36:52;16.70;99.90
4811;DHT22;2419;51.276;6.472;2022-11-13T09:39:39;17.70;99.90
4811;DHT22;2419;51.276;6.472;2022-11-13T09:42:29;18.30;99.90
4811;DHT22;2419;51.276;6.472;2022-11-13T09:45:16;19.20;1.00
4811;DHT22;2419;51.276;6.472;2022-11-13T09:48:22;19.40;99.90
4811;DHT22;2419;51.276;6.472;2022-11-13T09:51:14;20.50;99.90
4811;DHT22;2419;51.276;6.472;2022-11-13T09:54:05;20.20;1.00
4811;DHT22;2419;51.276;6.472;2022-11-13T09:56:58;19.60;64.90
4811;DHT22;2419;51.276;6.472;2022-11-13T09:59:54;19.50;45.30
4811;DHT22;2419;51.276;6.472;2022-11-13T10:02:56;19.50;99.40
4811;DHT22;2419;51.276;6.472;2022-11-13T10:05:50;19.30;99.90
4811;DHT22;2419;51.276;6.472;2022-11-13T10:08:46;19.10;99.90
4811;DHT22;2419;51.276;6.472;2022-11-13T10:11:38;18.90;99.90
4811;DHT22;2419;51.276;6.472;2022-11-13T10:14:30;18.90;99.90
4811;DHT22;2419;51.276;6.472;2022-11-13T10:17:23;18.70;1.00
4811;DHT22;2419;51.276;6.472;2022-11-13T10:20:14;18.20;1.00
4811;DHT22;2419;51.276;6.472;2022-11-13T10:23:09;18.10;1.00
4811;DHT22;2419;51.276;6.472;2022-11-13T10:26:06;18.00;99.90
4811;DHT22;2419;51.276;6.472;2022-11-13T10:29:00;18.50;99.90
4811;DHT22;2419;51.276;6.472;2022-11-13T10:31:49;19.00;99.90
4811;DHT22;2419;51.276;6.472;2022-11-13T10:34:38;19.40;99.90
4811;DHT22;2419;51.276;6.472;2022-11-13T10:37:33;19.20;99.90
4811;DHT22;2419;51.276;6.472;2022-11-13T10:40:26;19.80;99.90
4811;DHT22;2419;51.276;6.472;2022-11-13T10:43:16;20.30;1.00
4811;DHT22;2419;51.276;6.472;2022-11-13T10:46:05;19.70;1.00
4811;DHT22;2419;51.276;6.472;2022-11-13T10:48:51;19.60;1.00
4811;DHT22;2419;51.276;6.472;2022-11-13T10:51:40;19.30;1.00
4811;DHT22;2419;51.276;6.472;2022-11-13T10:54:28;19.10;1.00
4811;DHT22;2419;51.276;6.472;2022-11-13T10:57:28;19.20;1.00
4811;DHT22;2419;51.276;6.472;2022-11-13T11:00:26;18.70;1.00
4811;DHT22;2419;51.276;6.472;2022-11-13T11:03:17;18.40;17.20
4811;DHT22;2419;51.276;6.472;2022-11-13T11:06:05;18.60;16.70
4811;DHT22;2419;51.276;6.472;2022-11-13T11:09:05;18.30;1.00
4811;DHT22;2419;51.276;6.472;2022-11-13T11:12:08;18.50;1.00
4811;DHT22;2419;51.276;6.472;2022-11-13T11:15:20;18.70;1.00
4811;DHT22;2419;51.276;6.472;2022-11-13T11:18:19;18.70;5.30
4811;DHT22;2419;51.276;6.472;2022-11-13T11:21:09;18.80;31.50
4811;DHT22;2419;51.276;6.472;2022-11-13T11:24:04;18.90;1.00
4811;DHT22;2419;51.276;6.472;2022-11-13T11:26:58;19.30;1.00
4811;DHT22;2419;51.276;6.472;2022-11-13T11:29:52;19.90;1.00
4811;DHT22;2419;51.276;6.472;2022-11-13T11:32:44;19.80;1.00
4811;DHT22;2419;51.276;6.472;2022-11-13T11:35:43;19.80;1.00
4811;DHT22;2419;51.276;6.472;2022-11-13T11:38:35;19.90;1.00
4811;DHT22;2419;51.276;6.472;2022-11-13T11:41:31;20.30;1.00
4811;DHT22;2419;51.276;6.472;2022-11-13T11:44:25;20.40;1.00
4811;DHT22;2419;51.276;6.472;2022-11-13T11:47:16;20.20;1.00
4811;DHT22;2419;51.276;6.472;2022-11-13T11:50:05;20.50;1.00
4811;DHT22;2419;51.276;6.472;2022-11-13T11:53:00;20.20;1.00
4811;DHT22;2419;51.276;6.472;2022-11-13T11:56:10;20.10;1.00
4811;DHT22;2419;51.276;6.472;2022-11-13T11:59:21;20.10;1.00
4811;DHT22;2419;51.276;6.472;2022-11-13T12:05:34;20.40;1.00
4811;DHT22;2419;51.276;6.472;2022-11-13T12:08:28;20.80;1.00
4811;DHT22;2419;51.276;6.472;2022-11-13T12:11:23;21.30;1.00
4811;DHT22;2419;51.276;6.472;2022-11-13T12:14:22;21.50;1.00
4811;DHT22;2419;51.276;6.472;2022-11-13T12:17:24;21.50;1.00
4811;DHT22;2419;51.276;6.472;2022-11-13T12:20:23;21.10;1.00
4811;DHT22;2419;51.276;6.472;2022-11-13T12:23:21;20.90;1.00
4811;DHT22;2419;51.276;6.472;2022-11-13T12:26:16;21.00;1.00
4811;DHT22;2419;51.276;6.472;2022-11-13T12:29:17;20.90;1.00
4811;DHT22;2419;51.276;6.472;2022-11-13T12:32:17;20.70;1.00
4811;DHT22;2419;51.276;6.472;2022-11-13T12:35:14;21.30;1.00
4811;DHT22;2419;51.276;6.472;2022-11-13T12:38:10;21.80;1.00
4811;DHT22;2419;51.276;6.472;2022-11-13T12:41:16;21.60;1.00
4811;DHT22;2419;51.276;6.472;2022-11-13T12:44:16;21.90;19.00
4811;DHT22;2419;51.276;6.472;2022-11-13T12:47:08;21.70;62.50
4811;DHT22;2419;51.276;6.472;2022-11-13T12:50:00;21.60;71.40
4811;DHT22;2419;51.276;6.472;2022-11-13T12:52:57;21.10;89.50
4811;DHT22;2419;51.276;6.472;2022-11-13T12:55:55;20.60;64.70
4811;DHT22;2419;51.276;6.472;2022-11-13T12:58:55;20.50;59.00
4811;DHT22;2419;51.276;6.472;2022-11-13T13:02:26;20.70;85.00
4811;DHT22;2419;51.276;6.472;2022-11-13T13:05:22;20.90;65.20
4811;DHT22;2419;51.276;6.472;2022-11-13T13:08:33;20.80;1.00
4811;DHT22;2419;51.276;6.472;2022-11-13T13:11:31;21.00;27.70
4811;DHT22;2419;51.276;6.472;2022-11-13T13:14:39;21.10;50.70
4811;DHT22;2419;51.276;6.472;2022-11-13T13:17:33;21.10;40.30
4811;DHT22;2419;51.276;6.472;2022-11-13T13:20:33;21.10;41.60
4811;DHT22;2419;51.276;6.472;2022-11-13T13:23:26;21.10;15.50
4811;DHT22;2419;51.276;6.472;2022-11-13T13:26:16;21.10;1.00
4811;DHT22;2419;51.276;6.472;2022-11-13T13:29:15;20.90;47.70
4811;DHT22;2419;51.276;6.472;2022-11-13T13:32:10;20.60;12.40
4811;DHT22;2419;51.276;6.472;2022-11-13T13:35:13;20.60;1.30
4811;DHT22;2419;51.276;6.472;2022-11-13T13:38:06;20.70;7.30
4811;DHT22;2419;51.276;6.472;2022-11-13T13:41:08;20.20;8.40
4811;DHT22;2419;51.276;6.472;2022-11-13T13:47:16;19.90;1.00
4811;DHT22;2419;51.276;6.472;2022-11-13T13:50:11;19.60;9.90
4811;DHT22;2419;51.276;6.472;2022-11-13T13:53:01;19.60;1.00
4811;DHT22;2419;51.276;6.472;2022-11-13T13:55:50;19.10;9.40
4811;DHT22;2419;51.276;6.472;2022-11-13T13:58:38;18.70;1.00
4811;DHT22;2419;51.276;6.472;2022-11-13T14:01:27;18.40;1.00
4811;DHT22;2419;51.276;6.472;2022-11-13T14:04:18;18.10;1.00
4811;DHT22;2419;51.276;6.472;2022-11-13T14:07:18;17.80;1.00
4811;DHT22;2419;51.276;6.472;2022-11-13T14:10:07;17.50;1.00
4811;DHT22;2419;51.276;6.472;2022-11-13T14:12:59;17.20;1.00
4811;DHT22;2419;51.276;6.472;2022-11-13T14:15:46;16.90;21.30
4811;DHT22;2419;51.276;6.472;2022-11-13T14:18:34;16.80;1.00
4811;DHT22;2419;51.276;6.472;2022-11-13T14:21:22;16.60;1.00
4811;DHT22;2419;51.276;6.472;2022-11-13T14:24:14;16.50;1.00
4811;DHT22;2419;51.276;6.472;2022-11-13T14:27:05;16.30;1.00
4811;DHT22;2419;51.276;6.472;2022-11-13T14:29:54;16.30;1.00
4811;DHT22;2419;51.276;6.472;2022-11-13T14:32:42;16.30;1.00
4811;DHT22;2419;51.276;6.472;2022-11-13T14:35:32;16.20;1.00
4811;DHT22;2419;51.276;6.472;2022-11-13T14:38:21;16.20;1.00
4811;DHT22;2419;51.276;6.472;2022-11-13T14:41:19;16.20;1.00
4811;DHT22;2419;51.276;6.472;2022-11-13T14:44:09;16.10;1.00
4811;DHT22;2419;51.276;6.472;2022-11-13T14:47:01;16.00;99.90
4811;DHT22;2419;51.276;6.472;2022-11-13T14:49:48;15.80;99.90
4811;DHT22;2419;51.276;6.472;2022-11-13T14:52:35;15.70;99.90
4811;DHT22;2419;51.276;6.472;2022-11-13T14:55:23;15.60;99.90
4811;DHT22;2419;51.276;6.472;2022-11-13T14:58:13;15.30;70.30
4811;DHT22;2419;51.276;6.472;2022-11-13T15:01:12;15.10;99.90
4811;DHT22;2419;51.276;6.472;2022-11-13T15:03:59;14.90;99.90
4811;DHT22;2419;51.276;6.472;2022-11-13T15:06:46;14.60;99.90
4811;DHT22;2419;51.276;6.472;2022-11-13T15:09:35;14.40;99.90
4811;DHT22;2419;51.276;6.472;2022-11-13T15:12:21;14.10;99.90
4811;DHT22;2419;51.276;6.472;2022-11-13T15:15:14;14.00;99.90
4811;DHT22;2419;51.276;6.472;2022-11-13T15:18:01;13.80;99.90
4811;DHT22;2419;51.276;6.472;2022-11-13T15:20:49;13.70;70.10
4811;DHT22;2419;51.276;6.472;2022-11-13T15:23:36;13.60;99.90
4811;DHT22;2419;51.276;6.472;2022-11-13T15:26:23;13.40;89.30
4811;DHT22;2419;51.276;6.472;2022-11-13T15:29:10;13.30;10.40
4811;DHT22;2419;51.276;6.472;2022-11-13T15:31:58;13.20;1.00
4811;DHT22;2419;51.276;6.472;2022-11-13T15:34:45;13.10;1.00
4811;DHT22;2419;51.276;6.472;2022-11-13T15:37:33;13.00;1.00
4811;DHT22;2419;51.276;6.472;2022-11-13T15:40:20;12.80;1.00
4811;DHT22;2419;51.276;6.472;2022-11-13T15:43:10;12.80;1.00
4811;DHT22;2419;51.276;6.472;2022-11-13T15:45:58;12.70;1.00
4811;DHT22;2419;51.276;6.472;2022-11-13T15:48:47;12.60;99.90
4811;DHT22;2419;51.276;6.472;2022-11-13T15:51:36;12.50;99.90
4811;DHT22;2419;51.276;6.472;2022-11-13T15:54:27;12.30;1.00
4811;DHT22;2419;51.276;6.472;2022-11-13T15:57:18;12.10;1.00
4811;DHT22;2419;51.276;6.472;2022-11-13T16:00:12;11.90;1.00
4811;DHT22;2419;51.276;6.472;2022-11-13T16:02:59;11.80;99.90
4811;DHT22;2419;51.276;6.472;2022-11-13T16:05:50;11.60;99.90
4811;DHT22;2419;51.276;6.472;2022-11-13T16:08:37;11.50;99.90
4811;DHT22;2419;51.276;6.472;2022-11-13T16:11:24;11.40;99.90
4811;DHT22;2419;51.276;6.472;2022-11-13T16:14:10;11.30;1.00
4811;DHT22;2419;51.276;6.472;2022-11-13T16:16:57;11.30;1.00
4811;DHT22;2419;51.276;6.472;2022-11-13T16:19:45;11.30;59.70
4811;DHT22;2419;51.276;6.472;2022-11-13T16:22:35;10.90;42.10
4811;DHT22;2419;51.276;6.472;2022-11-13T16:25:22;10.50;99.90
4811;DHT22;2419;51.276;6.472;2022-11-13T16:28:13;10.30;1.00
4811;DHT22;2419;51.276;6.472;2022-11-13T16:31:00;10.10;99.90
4811;DHT22;2419;51.276;6.472;2022-11-13T16:33:48;10.00;99.90
4811;DHT22;2419;51.276;6.472;2022-11-13T16:36:35;10.00;1.00
4811;DHT22;2419;51.276;6.472;2022-11-13T16:39:23;10.10;1.00
4811;DHT22;2419;51.276;6.472;2022-11-13T16:42:09;9.90;1.00
4811;DHT22;2419;51.276;6.472;2022-11-13T16:44:56;9.80;1.00
4811;DHT22;2419;51.276;6.472;2022-11-13T16:47:44;9.50;99.90
4811;DHT22;2419;51.276;6.472;2022-11-13T16:50:32;9.30;1.00
4811;DHT22;2419;51.276;6.472;2022-11-13T16:53:21;9.30;99.90
4811;DHT22;2419;51.276;6.472;2022-11-13T16:56:13;9.10;99.90
4811;DHT22;2419;51.276;6.472;2022-11-13T16:59:01;9.00;99.90
4811;DHT22;2419;51.276;6.472;2022-11-13T17:01:52;8.90;1.00
4811;DHT22;2419;51.276;6.472;2022-11-13T17:04:40;8.80;99.90
4811;DHT22;2419;51.276;6.472;2022-11-13T17:07:26;8.90;1.00
4811;DHT22;2419;51.276;6.472;2022-11-13T17:10:15;8.60;1.00
4811;DHT22;2419;51.276;6.472;2022-11-13T17:13:18;8.50;1.00
4811;DHT22;2419;51.276;6.472;2022-11-13T17:16:05;8.40;21.60
4811;DHT22;2419;51.276;6.472;2022-11-13T17:18:52;8.40;19.60
4811;DHT22;2419;51.276;6.472;2022-11-13T17:21:40;8.30;27.50
4811;DHT22;2419;51.276;6.472;2022-11-13T17:24:28;8.30;70.90
4811;DHT22;2419;51.276;6.472;2022-11-13T17:27:15;8.30;81.50
4811;DHT22;2419;51.276;6.472;2022-11-13T17:30:06;8.10;76.70
4811;DHT22;2419;51.276;6.472;2022-11-13T17:32:53;8.10;95.90
4811;DHT22;2419;51.276;6.472;2022-11-13T17:35:40;8.10;94.80
4811;DHT22;2419;51.276;6.472;2022-11-13T17:38:27;8.00;73.90
4811;DHT22;2419;51.276;6.472;2022-11-13T17:41:15;8.00;76.80
4811;DHT22;2419;51.276;6.472;2022-11-13T17:44:02;8.00;81.00
4811;DHT22;2419;51.276;6.472;2022-11-13T17:46:51;8.00;91.70
4811;DHT22;2419;51.276;6.472;2022-11-13T17:49:38;8.00;95.50
4811;DHT22;2419;51.276;6.472;2022-11-13T17:52:24;8.00;94.50
4811;DHT22;2419;51.276;6.472;2022-11-13T17:55:11;8.10;94.20
4811;DHT22;2419;51.276;6.472;2022-11-13T17:57:58;8.00;90.00
4811;DHT22;2419;51.276;6.472;2022-11-13T18:00:45;8.10;87.70
4811;DHT22;2419;51.276;6.472;2022-11-13T18:03:34;8.10;72.20
4811;DHT22;2419;51.276;6.472;2022-11-13T18:06:21;8.00;36.80
4811;DHT22;2419;51.276;6.472;2022-11-13T18:09:08;7.70;27.00
4811;DHT22;2419;51.276;6.472;2022-11-13T18:11:55;7.60;32.80
4811;DHT22;2419;51.276;6.472;2022-11-13T18:14:42;7.50;64.50
4811;DHT22;2419;51.276;6.472;2022-11-13T18:17:29;7.40;98.30
4811;DHT22;2419;51.276;6.472;2022-11-13T18:20:17;7.30;97.60
4811;DHT22;2419;51.276;6.472;2022-11-13T18:23:04;7.20;99.90
4811;DHT22;2419;51.276;6.472;2022-11-13T18:25:51;7.20;99.90
4811;DHT22;2419;51.276;6.472;2022-11-13T18:28:39;7.20;99.90
4811;DHT22;2419;51.276;6.472;2022-11-13T18:31:26;7.20;99.90
4811;DHT22;2419;51.276;6.472;2022-11-13T18:34:15;7.10;96.20
4811;DHT22;2419;51.276;6.472;2022-11-13T18:37:03;7.00;99.90
4811;DHT22;2419;51.276;6.472;2022-11-13T18:39:50;7.00;99.90
4811;DHT22;2419;51.276;6.472;2022-11-13T18:42:37;7.00;99.90
4811;DHT22;2419;51.276;6.472;2022-11-13T18:45:23;7.00;99.90
4811;DHT22;2419;51.276;6.472;2022-11-13T18:48:10;7.00;99.90
4811;DHT22;2419;51.276;6.472;2022-11-13T18:50:58;6.80;99.90